createdAt,value
2023-11-23T00:00:13.053Z,2.90
2023-11-23T00:02:43.595Z,2.90
2023-11-23T00:05:12.245Z,2.90
2023-11-23T00:07:40.411Z,2.90
2023-11-23T00:10:11.910Z,2.80
2023-11-23T00:12:42.905Z,3.00
2023-11-23T00:15:11.640Z,2.90
2023-11-23T00:17:39.888Z,2.90
2023-11-23T00:20:11.585Z,2.90
2023-11-23T00:22:39.664Z,3.10
2023-11-23T00:25:13.340Z,2.90
2023-11-23T00:27:41.637Z,2.90
2023-11-23T00:30:10.519Z,2.90
2023-11-23T00:32:39.230Z,3.00
2023-11-23T00:35:09.550Z,2.90
2023-11-23T00:37:37.600Z,2.90
2023-11-23T00:40:06.904Z,2.90
2023-11-23T00:42:34.912Z,2.90
2023-11-23T00:45:03.255Z,2.90
2023-11-23T00:47:31.356Z,2.90
2023-11-23T00:49:59.689Z,2.90
2023-11-23T00:52:29.120Z,2.80
2023-11-23T00:54:58.303Z,2.70
2023-11-23T00:57:26.339Z,2.80
2023-11-23T00:59:54.404Z,2.80
2023-11-23T01:02:22.601Z,2.70
2023-11-23T01:04:50.768Z,2.70
2023-11-23T01:07:18.783Z,2.70
2023-11-23T01:09:48.170Z,2.60
2023-11-23T01:12:16.296Z,2.60
2023-11-23T01:14:44.842Z,2.60
2023-11-23T01:17:12.939Z,2.60
2023-11-23T01:19:41.963Z,2.60
2023-11-23T01:22:10.166Z,2.50
2023-11-23T01:24:38.837Z,2.50
2023-11-23T01:27:08.381Z,2.50
2023-11-23T01:29:36.617Z,2.50
2023-11-23T01:32:05.028Z,2.40
2023-11-23T01:34:33.120Z,2.40
2023-11-23T01:37:01.149Z,2.40
2023-11-23T01:39:29.171Z,2.50
2023-11-23T01:41:57.187Z,2.60
2023-11-23T01:44:26.773Z,2.60
2023-11-23T01:46:55.041Z,2.60
2023-11-23T01:49:26.616Z,2.60
2023-11-23T01:51:55.069Z,2.70
2023-11-23T01:54:24.401Z,2.50
2023-11-23T01:56:54.552Z,2.70
2023-11-23T01:59:23.289Z,2.70
2023-11-23T02:01:53.133Z,2.70
2023-11-23T02:04:21.219Z,2.60
2023-11-23T02:06:49.380Z,2.40
2023-11-23T02:09:17.601Z,2.40
2023-11-23T02:11:45.864Z,2.40
2023-11-23T02:14:13.938Z,2.30
2023-11-23T02:16:41.953Z,2.40
2023-11-23T02:19:12.481Z,2.30
2023-11-23T02:21:41.747Z,2.10
2023-11-23T02:24:12.720Z,2.10
2023-11-23T02:26:40.783Z,2.00
2023-11-23T02:29:08.756Z,2.00
2023-11-23T02:31:36.776Z,2.00
2023-11-23T02:34:04.829Z,2.10
2023-11-23T02:36:33.489Z,2.10
2023-11-23T02:39:01.632Z,2.10
2023-11-23T02:41:31.015Z,2.10
2023-11-23T02:43:59.096Z,2.10
2023-11-23T02:46:27.128Z,1.90
2023-11-23T02:48:55.191Z,2.00
2023-11-23T02:51:24.216Z,2.00
2023-11-23T02:53:52.282Z,1.90
2023-11-23T02:56:24.773Z,1.90
2023-11-23T02:58:54.977Z,1.90
2023-11-23T03:01:24.531Z,2.10
2023-11-23T03:03:55.475Z,2.10
2023-11-23T03:06:23.641Z,2.10
2023-11-23T03:08:52.906Z,2.10
2023-11-23T03:11:21.605Z,2.10
2023-11-23T03:13:50.110Z,2.00
2023-11-23T03:16:19.804Z,2.00
2023-11-23T03:18:47.941Z,2.00
2023-11-23T03:21:16.185Z,1.80
2023-11-23T03:23:46.679Z,1.80
2023-11-23T03:26:14.707Z,1.80
2023-11-23T03:28:42.806Z,1.80
2023-11-23T03:31:11.162Z,1.90
2023-11-23T03:33:40.547Z,2.00
2023-11-23T03:36:09.379Z,1.90
2023-11-23T03:38:38.613Z,2.00
2023-11-23T03:41:06.896Z,1.90
2023-11-23T03:43:34.956Z,1.90
2023-11-23T03:46:03.812Z,1.90
2023-11-23T03:48:32.061Z,2.00
2023-11-23T03:51:01.603Z,2.10
2023-11-23T03:53:29.592Z,2.30
2023-11-23T03:55:58.150Z,2.30
2023-11-23T03:58:26.181Z,2.10
2023-11-23T04:00:54.157Z,2.20
2023-11-23T04:03:22.201Z,2.20
2023-11-23T04:05:50.658Z,2.10
2023-11-23T04:08:23.258Z,1.80
2023-11-23T04:10:51.243Z,1.90
2023-11-23T04:13:19.434Z,1.80
2023-11-23T04:15:46.829Z,1.60
2023-11-23T04:18:15.688Z,1.60
2023-11-23T04:20:43.814Z,1.70
2023-11-23T04:23:12.759Z,1.70
2023-11-23T04:25:42.404Z,1.60
2023-11-23T04:28:10.398Z,1.60
2023-11-23T04:30:38.476Z,1.40
2023-11-23T04:33:07.092Z,1.40
2023-11-23T04:35:35.993Z,1.20
2023-11-23T04:38:04.286Z,1.10
2023-11-23T04:40:32.362Z,1.20
2023-11-23T04:43:01.716Z,1.30
2023-11-23T04:45:29.750Z,1.40
2023-11-23T04:47:57.767Z,1.50
2023-11-23T04:50:25.887Z,1.60
2023-11-23T04:52:53.948Z,1.50
2023-11-23T04:55:22.155Z,1.50
2023-11-23T04:57:50.215Z,1.50
2023-11-23T05:00:25.867Z,1.60
2023-11-23T05:02:54.653Z,1.70
2023-11-23T05:05:22.935Z,1.70
2023-11-23T05:07:51.132Z,1.50
2023-11-23T05:10:19.296Z,1.80
2023-11-23T05:12:47.284Z,1.40
2023-11-23T05:15:15.318Z,1.20
2023-11-23T05:17:44.716Z,1.00
2023-11-23T05:20:13.750Z,0.80
2023-11-23T05:22:41.820Z,0.80
2023-11-23T05:25:10.486Z,0.70
2023-11-23T05:27:38.521Z,0.70
2023-11-23T05:30:09.759Z,0.60
2023-11-23T05:32:37.798Z,0.30
2023-11-23T05:35:09.063Z,0.30
2023-11-23T05:37:37.094Z,0.60
2023-11-23T05:40:05.827Z,0.80
2023-11-23T05:42:34.279Z,0.80
2023-11-23T05:45:02.318Z,0.80
2023-11-23T05:47:30.372Z,0.80
2023-11-23T05:50:02.579Z,0.70
2023-11-23T05:52:31.962Z,0.60
2023-11-23T05:55:00.355Z,0.70
2023-11-23T05:57:28.446Z,0.80
2023-11-23T05:59:56.768Z,0.70
2023-11-23T06:02:25.045Z,0.80
2023-11-23T06:04:53.212Z,0.80
2023-11-23T06:07:21.313Z,0.90
2023-11-23T06:09:52.264Z,0.90
2023-11-23T06:12:20.946Z,0.80
2023-11-23T06:14:49.132Z,0.80
2023-11-23T06:17:17.300Z,0.80
2023-11-23T06:19:45.577Z,0.70
2023-11-23T06:22:13.619Z,0.90
2023-11-23T06:24:42.013Z,0.90
2023-11-23T06:27:11.572Z,1.00
2023-11-23T06:29:39.690Z,1.20
2023-11-23T06:32:08.475Z,1.20
2023-11-23T06:34:39.746Z,1.00
2023-11-23T06:37:09.095Z,0.90
2023-11-23T06:39:38.319Z,0.90
2023-11-23T06:42:06.719Z,0.50
2023-11-23T06:44:37.096Z,0.50
2023-11-23T06:47:05.690Z,0.50
2023-11-23T06:49:35.587Z,0.50
2023-11-23T06:52:03.776Z,0.40
2023-11-23T06:54:31.795Z,0.30
2023-11-23T06:56:59.887Z,0.30
2023-11-23T06:59:27.915Z,0.40
2023-11-23T07:01:57.454Z,0.20
2023-11-23T07:04:25.601Z,0.40
2023-11-23T07:06:53.702Z,1.70
2023-11-23T07:09:22.479Z,1.80
2023-11-23T07:11:55.265Z,3.20
2023-11-23T07:14:23.803Z,0.90
2023-11-23T07:16:52.955Z,0.60
2023-11-23T07:19:22.478Z,0.70
2023-11-23T07:21:50.998Z,0.10
2023-11-23T07:24:20.415Z,0.40
2023-11-23T07:26:48.763Z,0.30
2023-11-23T07:29:17.832Z,0.20
2023-11-23T07:31:47.679Z,0.10
2023-11-23T07:34:15.716Z,0.10
2023-11-23T07:36:45.109Z,0.20
2023-11-23T07:39:13.126Z,0.30
2023-11-23T07:41:41.591Z,0.20
2023-11-23T07:44:09.564Z,0.40
2023-11-23T07:46:37.825Z,0.50
2023-11-23T07:49:06.637Z,0.70
2023-11-23T07:51:34.726Z,0.90
2023-11-23T07:54:04.208Z,1.10
2023-11-23T07:56:34.177Z,1.30
2023-11-23T07:59:02.242Z,2.30
2023-11-23T08:01:30.510Z,2.10
2023-11-23T08:03:58.839Z,2.60
2023-11-23T08:06:27.008Z,2.80
2023-11-23T08:08:55.096Z,3.30
2023-11-23T08:11:24.545Z,3.80
2023-11-23T08:13:52.554Z,4.00
2023-11-23T08:16:21.455Z,4.30
2023-11-23T08:18:50.476Z,4.80
2023-11-23T08:21:18.890Z,5.20
2023-11-23T08:23:46.938Z,5.70
2023-11-23T08:26:17.024Z,6.10
2023-11-23T08:28:46.506Z,5.00
2023-11-23T08:31:14.575Z,5.10
2023-11-23T08:33:42.638Z,4.90
2023-11-23T08:36:11.396Z,4.40
2023-11-23T08:38:39.461Z,4.20
2023-11-23T08:41:07.889Z,4.00
2023-11-23T08:43:38.324Z,3.90
2023-11-23T08:46:09.313Z,3.80
2023-11-23T08:48:37.457Z,4.10
2023-11-23T08:51:05.967Z,4.20
2023-11-23T08:53:34.041Z,4.80
2023-11-23T08:56:02.504Z,5.00
2023-11-23T08:58:30.688Z,4.90
2023-11-23T09:00:58.762Z,4.70
2023-11-23T09:03:30.260Z,5.00
2023-11-23T09:05:59.428Z,5.30
2023-11-23T09:08:27.606Z,5.40
2023-11-23T09:10:56.872Z,5.60
2023-11-23T09:13:26.894Z,6.10
2023-11-23T09:15:55.714Z,7.20
2023-11-23T09:18:24.147Z,6.90
2023-11-23T09:20:54.359Z,7.30
2023-11-23T09:23:22.419Z,7.80
2023-11-23T09:25:50.533Z,8.30
2023-11-23T09:28:18.567Z,9.10
2023-11-23T09:30:47.120Z,9.20
2023-11-23T09:33:16.531Z,9.10
2023-11-23T09:35:45.729Z,8.80
2023-11-23T09:38:15.682Z,8.90
2023-11-23T09:40:43.708Z,8.70
2023-11-23T09:43:11.847Z,8.80
2023-11-23T09:45:40.237Z,8.50
2023-11-23T09:48:11.225Z,8.40
2023-11-23T09:50:42.594Z,8.00
2023-11-23T09:53:14.712Z,7.90
2023-11-23T09:55:43.206Z,7.50
2023-11-23T09:58:11.348Z,7.30
2023-11-23T10:00:39.462Z,6.70
2023-11-23T10:03:09.794Z,6.50
2023-11-23T10:05:39.768Z,6.90
2023-11-23T10:08:07.914Z,7.80
2023-11-23T10:10:40.229Z,8.80
2023-11-23T10:13:10.432Z,9.40
2023-11-23T10:15:39.263Z,9.50
2023-11-23T10:18:08.349Z,9.20
2023-11-23T10:20:39.908Z,8.70
2023-11-23T10:23:10.191Z,8.10
2023-11-23T10:25:42.663Z,8.00
2023-11-23T10:28:11.616Z,7.80
2023-11-23T10:30:40.837Z,7.50
2023-11-23T10:33:12.574Z,7.20
2023-11-23T10:35:44.400Z,7.10
2023-11-23T10:38:14.650Z,7.00
2023-11-23T10:40:46.642Z,7.20
2023-11-23T10:43:15.525Z,6.80
2023-11-23T10:45:45.594Z,6.60
2023-11-23T10:48:15.513Z,6.50
2023-11-23T10:50:44.525Z,6.40
2023-11-23T10:53:13.079Z,6.40
2023-11-23T10:55:41.056Z,6.50
2023-11-23T10:58:14.851Z,6.60
2023-11-23T11:00:44.445Z,6.60
2023-11-23T11:03:14.571Z,6.70
2023-11-23T11:05:47.074Z,6.70
2023-11-23T11:08:19.895Z,6.60
2023-11-23T11:10:51.363Z,6.50
2023-11-23T11:13:23.414Z,6.50
2023-11-23T11:15:53.117Z,6.50
2023-11-23T11:18:24.760Z,6.50
2023-11-23T11:21:12.932Z,4.20
2023-11-23T11:23:42.615Z,6.50
2023-11-23T11:26:18.134Z,6.70
2023-11-23T11:28:55.368Z,6.50
2023-11-23T11:31:32.516Z,6.50
2023-11-23T11:34:02.060Z,6.40
2023-11-23T11:36:30.355Z,6.60
2023-11-23T11:39:00.795Z,6.70
2023-11-23T11:41:32.369Z,6.80
2023-11-23T11:44:02.449Z,6.80
2023-11-23T11:46:30.534Z,6.80
2023-11-23T11:48:59.353Z,6.80
2023-11-23T11:51:27.698Z,4.00
2023-11-23T11:53:56.507Z,6.70
2023-11-23T11:56:24.899Z,6.80
2023-11-23T11:58:53.114Z,6.80
2023-11-23T12:01:22.659Z,6.80
2023-11-23T12:03:51.830Z,6.70
2023-11-23T12:06:20.308Z,6.70
2023-11-23T12:08:48.562Z,6.80
2023-11-23T12:11:27.769Z,6.90
2023-11-23T12:13:58.101Z,7.00
2023-11-23T12:16:36.449Z,7.00
2023-11-23T12:19:19.636Z,7.00
2023-11-23T12:21:54.792Z,4.20
2023-11-23T12:24:23.038Z,8.40
2023-11-23T12:26:53.735Z,7.00
2023-11-23T12:29:24.324Z,6.90
2023-11-23T12:31:54.131Z,7.00
2023-11-23T12:34:22.527Z,6.60
2023-11-23T12:36:50.862Z,7.10
2023-11-23T12:39:19.069Z,7.10
2023-11-23T12:41:53.082Z,7.00
2023-11-23T12:44:23.547Z,7.10
2023-11-23T12:46:53.237Z,7.10
2023-11-23T12:49:21.607Z,7.20
2023-11-23T12:51:49.759Z,7.50
2023-11-23T12:54:17.763Z,7.30
2023-11-23T12:56:46.118Z,7.30
2023-11-23T12:59:14.123Z,7.30
2023-11-23T13:01:42.347Z,7.10
2023-11-23T13:04:12.572Z,7.20
2023-11-23T13:06:41.173Z,7.20
2023-11-23T13:09:13.104Z,7.30
2023-11-23T13:11:41.491Z,7.70
2023-11-23T13:14:10.730Z,7.40
2023-11-23T13:16:38.931Z,7.50
2023-11-23T13:19:17.035Z,7.50
2023-11-23T13:21:56.074Z,5.20
2023-11-23T13:24:24.260Z,7.50
2023-11-23T13:26:52.474Z,7.60
2023-11-23T13:29:21.557Z,7.60
2023-11-23T13:31:50.905Z,7.90
2023-11-23T13:34:20.368Z,8.00
2023-11-23T13:36:49.299Z,9.80
2023-11-23T13:39:20.678Z,12.40
2023-11-23T13:41:49.560Z,14.20
2023-11-23T13:44:17.967Z,14.00
2023-11-23T13:46:46.418Z,13.60
2023-11-23T13:49:14.947Z,15.00
2023-11-23T13:51:42.982Z,15.40
2023-11-23T13:54:11.120Z,15.80
2023-11-23T13:56:43.521Z,16.20
2023-11-23T13:59:12.878Z,17.10
2023-11-23T14:01:41.328Z,12.10
2023-11-23T14:04:13.965Z,12.70
2023-11-23T14:06:43.344Z,10.60
2023-11-23T14:09:19.567Z,10.70
2023-11-23T14:11:51.777Z,7.80
2023-11-23T14:14:19.878Z,8.00
2023-11-23T14:16:47.913Z,7.90
2023-11-23T14:19:17.827Z,7.60
2023-11-23T14:21:47.439Z,5.60
2023-11-23T14:24:16.432Z,7.60
2023-11-23T14:26:44.586Z,7.40
2023-11-23T14:29:13.973Z,7.30
2023-11-23T14:31:43.230Z,7.40
2023-11-23T14:34:12.058Z,7.30
2023-11-23T14:36:42.381Z,7.30
2023-11-23T14:39:10.604Z,7.20
2023-11-23T14:41:38.709Z,7.10
2023-11-23T14:44:07.114Z,7.20
2023-11-23T14:46:36.500Z,7.30
2023-11-23T14:49:06.308Z,7.30
2023-11-23T14:51:36.177Z,7.30
2023-11-23T14:54:10.552Z,7.20
2023-11-23T14:56:41.283Z,7.20
2023-11-23T14:59:10.478Z,7.10
2023-11-23T15:01:40.091Z,7.30
2023-11-23T15:04:08.744Z,7.10
2023-11-23T15:06:37.502Z,7.00
2023-11-23T15:09:06.254Z,7.10
2023-11-23T15:11:34.303Z,7.10
2023-11-23T15:14:02.364Z,7.00
2023-11-23T15:16:31.898Z,7.00
2023-11-23T15:19:01.559Z,7.00
2023-11-23T15:21:30.941Z,6.90
2023-11-23T15:24:01.539Z,6.90
2023-11-23T15:26:30.496Z,6.90
2023-11-23T15:29:00.333Z,6.90
2023-11-23T15:31:28.493Z,6.80
2023-11-23T15:33:57.116Z,6.80
2023-11-23T15:36:26.517Z,6.80
2023-11-23T15:38:54.570Z,6.90
2023-11-23T15:41:23.148Z,6.80
2023-11-23T15:43:51.189Z,6.80
2023-11-23T15:46:20.172Z,6.90
2023-11-23T15:48:51.296Z,6.80
2023-11-23T15:51:19.524Z,6.80
2023-11-23T15:53:50.866Z,6.80
2023-11-23T15:56:19.531Z,6.80
2023-11-23T15:58:48.474Z,6.80
2023-11-23T16:01:16.613Z,6.70
2023-11-23T16:03:45.606Z,6.70
2023-11-23T16:06:13.729Z,6.70
2023-11-23T16:08:41.782Z,6.80
2023-11-23T16:11:11.106Z,6.80
2023-11-23T16:13:39.839Z,6.80
2023-11-23T16:16:08.406Z,6.80
2023-11-23T16:18:39.781Z,6.80
2023-11-23T16:21:08.642Z,6.80
2023-11-23T16:23:36.738Z,6.80
2023-11-23T16:26:05.895Z,6.90
2023-11-23T16:28:35.275Z,6.90
2023-11-23T16:31:05.923Z,6.90
2023-11-23T16:33:34.143Z,6.90
2023-11-23T16:36:02.194Z,6.80
2023-11-23T16:38:30.762Z,6.80
2023-11-23T16:40:59.042Z,6.80
2023-11-23T16:43:27.369Z,6.80
2023-11-23T16:45:56.673Z,6.90
2023-11-23T16:48:24.825Z,6.90
2023-11-23T16:50:52.933Z,6.90
2023-11-23T16:53:20.990Z,6.90
2023-11-23T16:55:48.987Z,6.90
2023-11-23T16:58:16.986Z,6.90
2023-11-23T17:00:45.033Z,6.90
2023-11-23T17:03:15.156Z,6.90
2023-11-23T17:05:43.833Z,7.00
2023-11-23T17:08:12.717Z,7.00
2023-11-23T17:10:40.902Z,7.00
2023-11-23T17:13:11.980Z,7.00
2023-11-23T17:15:40.026Z,7.00
2023-11-23T17:18:08.252Z,7.00
2023-11-23T17:20:37.677Z,7.00
2023-11-23T17:23:06.133Z,7.00
2023-11-23T17:25:39.978Z,7.00
2023-11-23T17:28:08.601Z,7.00
2023-11-23T17:30:37.209Z,7.00
2023-11-23T17:33:05.379Z,7.00
2023-11-23T17:35:33.478Z,7.00
2023-11-23T17:38:02.872Z,7.10
2023-11-23T17:40:30.871Z,7.10
2023-11-23T17:42:58.994Z,7.10
2023-11-23T17:45:27.089Z,7.10
2023-11-23T17:47:55.791Z,7.10
2023-11-23T17:50:24.259Z,7.20
2023-11-23T17:52:52.995Z,7.10
2023-11-23T17:55:22.410Z,7.20
2023-11-23T17:57:50.684Z,7.10
2023-11-23T18:00:21.135Z,7.20
2023-11-23T18:02:49.326Z,7.20
2023-11-23T18:05:18.574Z,7.10
2023-11-23T18:07:47.109Z,7.20
2023-11-23T18:10:16.227Z,7.20
2023-11-23T18:12:46.277Z,7.20
2023-11-23T18:15:15.203Z,7.20
2023-11-23T18:17:44.063Z,7.20
2023-11-23T18:20:14.497Z,7.20
2023-11-23T18:22:42.542Z,7.20
2023-11-23T18:25:10.676Z,7.20
2023-11-23T18:27:39.094Z,7.20
2023-11-23T18:30:10.104Z,7.30
2023-11-23T18:32:38.318Z,7.20
2023-11-23T18:35:06.895Z,7.20
2023-11-23T18:37:35.016Z,7.20
2023-11-23T18:40:14.058Z,7.20
2023-11-23T18:42:43.494Z,7.20
2023-11-23T18:45:13.987Z,7.30
2023-11-23T18:47:42.738Z,7.30
2023-11-23T18:50:11.715Z,7.30
2023-11-23T18:52:40.058Z,7.30
2023-11-23T18:55:10.121Z,7.30
2023-11-23T18:57:38.251Z,7.30
2023-11-23T19:00:09.848Z,7.30
2023-11-23T19:02:40.629Z,7.30
2023-11-23T19:05:14.804Z,7.30
2023-11-23T19:07:43.882Z,7.30
2023-11-23T19:10:15.383Z,7.30
2023-11-23T19:12:46.110Z,7.30
2023-11-23T19:15:14.656Z,7.30
2023-11-23T19:17:45.377Z,7.30
2023-11-23T19:20:15.051Z,7.60
2023-11-23T19:22:43.688Z,7.30
2023-11-23T19:25:12.807Z,7.30
2023-11-23T19:27:42.100Z,7.30
2023-11-23T19:30:11.818Z,7.30
2023-11-23T19:32:40.948Z,7.30
2023-11-23T19:35:13.389Z,7.30
2023-11-23T19:37:42.029Z,7.30
2023-11-23T19:40:11.458Z,7.30
2023-11-23T19:42:41.578Z,7.30
2023-11-23T19:47:40.425Z,7.30
2023-11-23T19:50:11.905Z,7.30
2023-11-23T19:52:44.635Z,7.30
2023-11-23T19:55:13.285Z,7.30
2023-11-23T19:57:42.073Z,7.30
2023-11-23T20:00:12.533Z,7.40
2023-11-23T20:02:41.057Z,7.40
2023-11-23T20:05:11.173Z,7.40
2023-11-23T20:07:40.141Z,7.40
2023-11-23T20:10:09.099Z,7.30
2023-11-23T20:12:37.685Z,7.30
2023-11-23T20:17:37.115Z,7.20
2023-11-23T20:20:06.374Z,7.30
2023-11-23T20:22:35.753Z,7.40
2023-11-23T20:25:04.894Z,7.30
2023-11-23T20:27:33.077Z,7.30
2023-11-23T20:30:01.367Z,7.30
2023-11-23T20:32:29.544Z,7.30
2023-11-23T20:34:57.677Z,7.20
2023-11-23T20:37:26.304Z,7.30
2023-11-23T20:39:55.711Z,7.30
2023-11-23T20:42:23.809Z,7.30
2023-11-23T20:44:51.838Z,7.30
2023-11-23T20:47:20.676Z,7.30
2023-11-23T20:49:49.126Z,7.30
2023-11-23T20:52:17.318Z,7.50
2023-11-23T20:54:45.318Z,7.30
2023-11-23T20:57:15.404Z,7.30
2023-11-23T20:59:44.572Z,7.30
2023-11-23T21:02:13.317Z,7.30
2023-11-23T21:04:42.183Z,7.30
2023-11-23T21:07:12.209Z,7.30
2023-11-23T21:09:41.438Z,7.40
2023-11-23T21:12:15.128Z,7.40
2023-11-23T21:14:51.172Z,7.40
2023-11-23T21:17:19.339Z,7.30
2023-11-23T21:19:47.386Z,7.30
2023-11-23T21:22:15.456Z,7.30
2023-11-23T21:24:45.023Z,7.20
2023-11-23T21:27:13.498Z,7.20
2023-11-23T21:29:41.550Z,7.30
2023-11-23T21:32:13.516Z,7.30
2023-11-23T21:34:41.499Z,7.30
2023-11-23T21:37:09.534Z,7.30
2023-11-23T21:39:37.833Z,7.40
2023-11-23T21:42:07.123Z,7.40
2023-11-23T21:44:35.095Z,7.30
2023-11-23T21:47:03.291Z,7.40
2023-11-23T21:49:33.055Z,7.40
2023-11-23T21:52:01.186Z,7.40
2023-11-23T21:54:30.222Z,7.40
2023-11-23T21:56:59.046Z,7.40
2023-11-23T21:59:27.987Z,7.40
2023-11-23T22:01:56.245Z,7.60
2023-11-23T22:04:24.830Z,7.30
2023-11-23T22:06:54.251Z,7.50
2023-11-23T22:09:22.361Z,7.40
2023-11-23T22:11:51.901Z,7.50
2023-11-23T22:14:20.083Z,7.30
2023-11-23T22:16:48.545Z,7.30
2023-11-23T22:19:17.331Z,7.40
2023-11-23T22:21:47.888Z,7.60
2023-11-23T22:24:18.404Z,7.40
2023-11-23T22:26:47.005Z,7.30
2023-11-23T22:29:15.627Z,7.30
2023-11-23T22:31:44.767Z,7.20
2023-11-23T22:34:13.640Z,7.30
2023-11-23T22:36:42.185Z,7.30
2023-11-23T22:39:11.370Z,7.40
2023-11-23T22:41:41.513Z,7.20
2023-11-23T22:51:36.530Z,7.20
2023-11-23T22:54:07.259Z,7.20
2023-11-23T22:56:35.732Z,7.10
2023-11-23T22:59:05.355Z,7.10
2023-11-23T23:01:34.095Z,7.10
2023-11-23T23:04:02.277Z,7.10
2023-11-23T23:11:30.888Z,7.00
2023-11-23T23:14:00.132Z,7.00
2023-11-23T23:16:30.860Z,7.00
2023-11-23T23:21:32.409Z,7.00
2023-11-23T23:24:00.623Z,6.80
2023-11-23T23:26:28.691Z,7.00
2023-11-23T23:28:56.777Z,7.00
2023-11-23T23:31:24.790Z,7.00
2023-11-23T23:33:54.244Z,7.00
2023-11-23T23:36:22.524Z,7.00
2023-11-23T23:38:50.623Z,7.00
2023-11-23T23:41:18.717Z,7.00
2023-11-23T23:43:47.608Z,7.00
2023-11-23T23:46:15.744Z,7.00
2023-11-23T23:48:43.903Z,7.10
2023-11-23T23:51:13.365Z,7.10
2023-11-23T23:53:43.740Z,7.10
2023-11-23T23:56:12.372Z,7.10
2023-11-23T23:58:40.401Z,7.10
